Airfield :
LOGIN :

Register | Disclaimer

   EN    FR    IT 

 










Legend :    VFR   Marginal VFR   IFR   Intensive IFR   Very Intensive IFR
Visi :
Ceiling :
>= 8 km
>= 3000ft
5 to 8 km
1000 to 3000 ft
1500m to 5 km
500 to 1000 ft
800 to 1500m
200 to 500 ft
< 800m
< 200 ft
Symbols :   Thunderstorms  Fog  Heavy snow  Heavy precipitations  Wind > 20 kt
SIGMETs :     Misc.  Thunderstorms  Icing  Turbulence  Mountain Waves  Volcanic Ashes






- Airport Elevation : 272 ft
- IATA code : MXN


LFRU - Morlaix-Ploujean

CURRENT METAR :
  • 311330Z AUTO 28014KT 9999 SCT023 BKN032 OVC038 13/09 Q1013

EXPIRED METARs :
  • 311300Z AUTO 26015KT 9999 SCT025 OVC041 14/11 Q1013
  • 311230Z AUTO 27014KT 9999 FEW018 SCT028 OVC041 13/11 Q1013
  • 311200Z AUTO 27014KT 9999 FEW013 BKN020 BKN026 13/11 Q1013
  • 311130Z AUTO 26014KT 230V290 9999 BKN013 BKN036 OVC043 14/12 Q1012
  • 311100Z AUTO 24016KT 210V270 6000 -RA BKN011/// BKN017/// BKN025/// ///TCU 13/12 Q1012

TAF N/A



MET'MAP, your aeronautical weather chart ! - Copyright ORBIFLY December 2007 - Disclaimer

ORBIFLY MET'MAP TEAM :

Programming & Development : Alexandra Zaïnal
Concept & original design : Baudouin d'Aumeries
Assistance for programming : Marc-Olivier Méhu
Technical & hardware support : Manuel Goepfert

Contact : metmap@orbifly.com




SOURCES & CREDITS :

   NOAA